METAR Data
IDs: Format: Raw Decoded Include TAF

Data at: 2213 UTC 24 Mar 2019

KORG 242155Z AUTO 19010KT 10SM OVC039 23/19 A3011 RMK AO2 T02250191
KORG 242135Z AUTO 18011KT 10SM BKN043 OVC070 23/19 A3011 RMK AO2 T02260191
KORG 242115Z AUTO 20010KT 10SM SCT047 OVC070 23/19 A3011 RMK AO2 T02310193
KORG 242055Z AUTO 17011KT 10SM SCT050 OVC070 24/19 A3011 RMK AO2 T02360191
KORG 242035Z AUTO 20010G14KT 10SM OVC050 24/19 A3012 RMK AO2 T02370191
KORG 242015Z AUTO 19012G15KT 10SM BKN050 BKN070 24/19 A3012 RMK AO2 T02380191
KORG 241955Z AUTO 18010G17KT 10SM SCT050 24/19 A3013 RMK AO2 T02410188
KORG 241935Z AUTO 19014G18KT 10SM SCT024 BKN050 24/19 A3013 RMK AO2 T02420189
KORG 241915Z AUTO 19010KT 10SM SCT046 OVC050 23/19 A3013 RMK AO2 T02320185
KORG 241855Z AUTO 19013KT 10SM SCT023 OVC048 23/19 A3015 RMK AO2 T02280186
KORG 241835Z AUTO 18011G16KT 10SM SCT023 BKN050 OVC070 23/19 A3016 RMK AO2 T02320187
KORG 241815Z AUTO 19011G15KT 10SM SCT021 SCT042 OVC050 23/19 A3016 RMK AO2 T02300188
KORG 241755Z AUTO 19011KT 10SM BKN041 BKN048 OVC060 23/19 A3017 RMK AO2 T02300189 10240 20165
KORG 241735Z AUTO 18009KT 10SM SCT022 BKN041 OVC070 23/19 A3017 RMK AO2 T02340191
KORG 241715Z AUTO 20012KT 10SM SCT048 BKN065 24/19 A3018 RMK AO2 T02380187
KORG 241655Z AUTO 18012G16KT 10SM SCT021 BKN065 23/19 A3018 RMK AO2 T02340188
KORG 241635Z AUTO 20010G16KT 10SM SCT021 SCT065 23/19 A3018 RMK AO2 T02330188
KORG 241615Z AUTO 19011G15KT 10SM SCT021 23/19 A3018 RMK AO2 T02340188
KORG 241555Z AUTO 18012G17KT 10SM SCT019 23/19 A3018 RMK AO2 T02270188
KORG 241535Z AUTO 16011G14KT 10SM SCT015 23/19 A3018 RMK AO2 T02250191
KORG 241515Z AUTO 19009KT 10SM SCT015 22/19 A3018 RMK AO2 T02230192
KORG 241455Z AUTO 16009KT 10SM SCT013 22/19 A3017 RMK AO2 T02160193
KORG 241435Z AUTO 15007KT 10SM CLR 21/19 A3017 RMK AO2 T02070191
KORG 241415Z AUTO 16007KT 10SM CLR 20/19 A3016 RMK AO2 T01980188
KORG 241355Z AUTO 17005KT 10SM SCT080 19/18 A3016 RMK AO2 T01880184
KORG 241335Z AUTO 16005KT 10SM BKN080 18/18 A3016 RMK AO2 T01820181
KORG 241315Z AUTO 13005KT 10SM OVC080 18/18 A3016 RMK AO2 T01750175
KORG 241255Z AUTO 13003KT 7SM OVC080 17/17 A3015 RMK AO2 T01690169
KORG 241235Z AUTO 10003KT 7SM SCT022 SCT027 SCT080 17/17 A3016 RMK AO2 T01650165
KORG 241215Z AUTO 14004KT 10SM SCT022 SCT027 17/17 A3015 RMK AO2 T01650165
KORG 241155Z AUTO 13004KT 10SM BKN022 17/17 A3014 RMK AO2 T01650165 10168 20160
KORG 241135Z AUTO 14003KT 10SM SCT024 16/16 A3014 RMK AO2 T01620162
KORG 241115Z AUTO 14003KT 7SM SCT024 16/16 A3014 RMK AO2 T01610161
KORG 241055Z AUTO 13003KT 7SM CLR 16/16 A3014 RMK AO2 T01610161
KORG 241035Z AUTO 00000KT 7SM CLR 16/16 A3014 RMK AO2 T01600160
KORG 241015Z AUTO 00000KT 7SM CLR 16/16 A3014 RMK AO2 T01610161
KORG 240955Z AUTO 00000KT 7SM SCT027 SCT035 16/16 A3014 RMK AO2 T01630163
KORG 240935Z AUTO 00000KT 7SM BKN027 BKN035 17/17 A3014 RMK AO2 T01660166
KORG 240915Z AUTO 12003KT 7SM BKN027 17/17 A3013 RMK AO2 T01650165
KORG 240855Z AUTO 00000KT 7SM SCT029 17/17 A3014 RMK AO2 T01650165
KORG 240835Z AUTO 12004KT 7SM BKN029 17/17 A3014 RMK AO2 T01670167
KORG 240815Z AUTO 13005KT 10SM SCT029 17/17 A3014 RMK AO2 T01680168
KORG 240755Z AUTO 14004KT 10SM CLR 17/17 A3014 RMK AO2 T01680168
KORG 240735Z AUTO 14006KT 10SM CLR 17/17 A3013 RMK AO2 T01670167
KORG 240715Z AUTO 14005KT 10SM CLR 17/17 A3014 RMK AO2 T01660166
KORG 240655Z AUTO 14004KT 10SM CLR 17/17 A3015 RMK AO2 T01670167
KORG 240635Z AUTO 15004KT 10SM CLR 17/17 A3016 RMK AO2 T01650165
KORG 240615Z AUTO 16003KT 10SM CLR 17/17 A3016 RMK AO2 T01650165
KORG 240555Z AUTO 16003KT 10SM CLR 17/17 A3016 RMK AO2 T01660165 10199 20166 402360099
KORG 240535Z AUTO 14004KT 10SM CLR 17/17 A3016 RMK AO2 T01680166
KORG 240515Z AUTO 14005KT 10SM CLR 17/17 A3016 RMK AO2 T01690166
KORG 240455Z AUTO 13005KT 10SM CLR 17/17 A3016 RMK AO2 T01700169
KORG 240435Z AUTO 13006KT 10SM CLR 17/17 A3016 RMK AO2 T01700167
KORG 240415Z AUTO 13006KT 10SM CLR 17/17 A3016 RMK AO2 T01700167
KORG 240355Z AUTO 14005KT 10SM CLR 17/17 A3017 RMK AO2 T01700167
KORG 240335Z AUTO 14004KT 10SM CLR 17/17 A3017 RMK AO2 T01700166
KORG 240315Z AUTO 15004KT 10SM CLR 17/17 A3017 RMK AO2 T01720166
KORG 240255Z AUTO 15004KT 10SM CLR 18/17 A3017 RMK AO2 T01750166
KORG 240235Z AUTO 15005KT 10SM SCT080 18/17 A3016 RMK AO2 T01750165
KORG 240215Z AUTO 15004KT 10SM OVC080 18/17 A3016 RMK AO2 T01780165
KORG 240155Z AUTO 14004KT 10SM OVC080 18/17 A3016 RMK AO2 T01810167
KORG 240135Z AUTO 15004KT 10SM OVC090 18/17 A3016 RMK AO2 T01820165
KORG 240115Z AUTO 15004KT 10SM OVC090 19/16 A3016 RMK AO2 T01850163
KORG 240055Z AUTO 16005KT 10SM BKN090 19/16 A3016 RMK AO2 T01850160
KORG 240035Z AUTO 16005KT 10SM SCT090 19/16 A3016 RMK AO2 T01860156
KORG 240015Z AUTO 16004KT 10SM BKN090 19/16 A3016 RMK AO2 T01910157
KORG 232355Z AUTO 16007KT 10SM SCT090 BKN120 20/15 A3016 RMK AO2 T02000151 10236 20198
KORG 232335Z AUTO 16007KT 10SM BKN110 20/15 A3016 RMK AO2 T02000149
KORG 232315Z AUTO 16007KT 10SM SCT100 20/14 A3017 RMK AO2 T02000139
KORG 232255Z AUTO 19009KT 10SM BKN100 22/14 A3016 RMK AO2 T02150141
KORG 232235Z AUTO 18010KT 10SM OVC100 22/13 A3016 RMK AO2 T02170132
KORG 232215Z AUTO 19007G14KT 10SM OVC090 21/13 A3016 RMK AO2 T02110130
KORG 232155Z AUTO 18010G16KT 10SM BKN090 21/12 A3015 RMK AO2 T02120124
KORG 232135Z AUTO 18009G17KT 10SM CLR 23/12 A3016 RMK AO2 T02260118
KORG 232115Z AUTO 17010G17KT 10SM CLR 23/11 A3015 RMK AO2 T02270108
KORG 232055Z AUTO 17012G18KT 10SM SCT095 23/10 A3016 RMK AO2 T02320104
KORG 232035Z AUTO 15013G18KT 10SM SCT095 23/09 A3016 RMK AO2 LTG DSNT NW T02300088
KORG 232015Z AUTO 15010G17KT 10SM CLR 23/10 A3016 RMK AO2 T02330103
KORG 231955Z AUTO 17012G19KT 10SM CLR 23/11 A3016 RMK AO2 T02340110
KORG 231935Z AUTO 15008G16KT 10SM CLR 23/11 A3017 RMK AO2 T02320109
KORG 231915Z AUTO 18010KT 10SM CLR 23/12 A3018 RMK AO2 T02330116
KORG 231855Z AUTO 13009G15KT 10SM CLR 23/11 A3018 RMK AO2 T02280110
KORG 231835Z AUTO 15011G16KT 120V190 10SM CLR 23/11 A3019 RMK AO2 T02290110
KORG 231815Z AUTO 15009KT 10SM CLR 23/12 A3020 RMK AO2 T02320119
KORG 231755Z AUTO 16010G15KT 10SM CLR 23/12 A3021 RMK AO2 T02270115 10230 20099
KORG 231735Z AUTO 17011G16KT 10SM CLR 23/12 A3021 RMK AO2 T02260116
KORG 231715Z AUTO 14009G14KT 110V170 10SM CLR 23/12 A3022 RMK AO2 LTG DSNT NW T02280124
KORG 231655Z AUTO 17008KT 10SM CLR 22/14 A3023 RMK AO2 T02180138
KORG 231635Z AUTO 19008KT 10SM SCT032 SCT037 21/15 A3023 RMK AO2 T02120147
KORG 231615Z AUTO 18005KT 10SM SCT028 BKN034 21/16 A3024 RMK AO2 LTG DSNT N T02110160
KORG 231555Z AUTO 19009KT 10SM SCT026 SCT032 21/17 A3024 RMK AO2 T02090165
KORG 231535Z AUTO 16005KT 10SM CLR 19/18 A3024 RMK AO2 T01890182
KORG 231515Z AUTO 16004KT 10SM CLR 18/18 A3023 RMK AO2 T01780178
KORG 231455Z AUTO 12005KT 10SM CLR 17/17 A3022 RMK AO2 LTG DSNT NW T01730173
KORG 231435Z AUTO 11003KT 10SM CLR 17/17 A3021 RMK AO2 T01690169
KORG 231415Z AUTO 00000KT 7SM SCT001 16/16 A3021 RMK AO2 T01600160
KORG 231355Z AUTO 00000KT 2 1/2SM BR BKN001 15/15 A3020 RMK AO2 LTG DSNT NW T01500150
KORG 231335Z AUTO 00000KT 3/4SM BR OVC001 14/14 A3020 RMK AO2 T01410141
KORG 231315Z AUTO 00000KT 1/2SM FG OVC001 14/14 A3019 RMK AO2 T01350135
KORG 231255Z AUTO 00000KT M1/4SM FG OVC001 12/12 A3018 RMK AO2 T01160116
KORG 231235Z AUTO 00000KT 2 1/2SM BR SCT001 10/10 A3017 RMK AO2 T01000100
KORG 231215Z AUTO 00000KT 1SM BR OVC001 10/10 A3016 RMK AO2 T01000100
KORG 231155Z AUTO 00000KT 1/2SM FG OVC001 10/10 A3016 RMK AO2 T01020102 10145 20101
KORG 231135Z AUTO 00000KT M1/4SM FG OVC001 10/10 A3015 RMK AO2 T01020102
KORG 231115Z AUTO 00000KT 1/4SM FG OVC003 11/11 A3014 RMK AO2 T01060106
KORG 231055Z AUTO 00000KT 1 1/4SM BR BKN003 11/11 A3013 RMK AO2 T01060106
KORG 231035Z AUTO 00000KT 1/2SM FG OVC003 12/12 A3013 RMK AO2 T01150115
KORG 231015Z AUTO 00000KT 1/4SM FG OVC003 11/11 A3012 RMK AO2 T01130113